Time,TemperatureF,DewpointF,PressureIn,WindDirection,WindDirectionDegrees,WindSpeedMPH,WindSpeedGustMPH,Humidity,HourlyPrecipIn,Conditions,Clouds,dailyrainin,SoftwareType,DateUTC
2013-03-28 00:06:00,35.1,23.0,29.96,NW,322,0.0,2.0,62,0.00,,,0.00,weatherlink.com 1.10,2013-03-28 04:06:00,
2013-03-28 00:21:00,34.7,23.0,29.96,NW,323,0.0,1.0,63,0.00,,,0.00,weatherlink.com 1.10,2013-03-28 04:21:00,
2013-03-28 00:37:00,34.2,23.0,29.97,North,360,0.0,3.0,64,0.00,,,0.00,weatherlink.com 1.10,2013-03-28 04:37:00,
2013-03-28 00:52:00,33.9,23.0,29.96,North,360,0.0,1.0,65,0.00,,,0.00,weatherlink.com 1.10,2013-03-28 04:52:00,
2013-03-28 01:08:00,33.3,23.0,29.96,North,360,0.0,2.0,67,0.00,,,0.00,weatherlink.com 1.10,2013-03-28 05:08:00,
2013-03-28 01:24:00,33.0,24.0,29.96,North,355,0.0,3.0,69,0.00,,,0.00,weatherlink.com 1.10,2013-03-28 05:24:00,
2013-03-28 01:38:00,33.2,24.0,29.96,West,281,0.0,3.0,69,0.00,,,0.00,weatherlink.com 1.10,2013-03-28 05:38:00,
2013-03-28 01:54:00,33.2,24.0,29.96,NNW,329,0.0,4.0,69,0.00,,,0.00,weatherlink.com 1.10,2013-03-28 05:54:00,
2013-03-28 02:08:00,33.1,24.0,29.96,NW,323,0.0,3.0,69,0.00,,,0.00,weatherlink.com 1.10,2013-03-28 06:08:00,
2013-03-28 02:25:00,33.2,24.0,29.96,NNW,328,2.0,4.0,70,0.00,,,0.00,weatherlink.com 1.10,2013-03-28 06:25:00,
2013-03-28 02:40:00,33.2,24.0,29.96,NNW,341,0.0,3.0,70,0.00,,,0.00,weatherlink.com 1.10,2013-03-28 06:40:00,
2013-03-28 02:55:00,32.9,24.0,29.96,NNW,328,4.0,4.0,71,0.00,,,0.00,weatherlink.com 1.10,2013-03-28 06:55:00,
2013-03-28 03:10:00,32.6,24.0,29.96,NW,312,0.0,5.0,72,0.00,,,0.00,weatherlink.com 1.10,2013-03-28 07:10:00,
2013-03-28 03:27:00,32.7,25.0,29.96,NNW,344,0.0,3.0,73,0.00,,,0.00,weatherlink.com 1.10,2013-03-28 07:27:00,
2013-03-28 03:42:00,32.8,25.0,29.96,NW,307,0.0,3.0,73,0.00,,,0.00,weatherlink.com 1.10,2013-03-28 07:42:00,
2013-03-28 03:57:00,32.8,25.0,29.96,WNW,299,0.0,2.0,73,0.00,,,0.00,weatherlink.com 1.10,2013-03-28 07:57:00,
2013-03-28 04:12:00,33.0,26.0,29.96,NNW,340,2.0,3.0,74,0.00,,,0.00,weatherlink.com 1.10,2013-03-28 08:12:00,
2013-03-28 04:27:00,33.6,26.0,29.96,NW,310,0.0,3.0,74,0.00,,,0.00,weatherlink.com 1.10,2013-03-28 08:27:00,
2013-03-28 04:43:00,34.3,26.0,29.96,NW,307,0.0,4.0,72,0.00,,,0.00,weatherlink.com 1.10,2013-03-28 08:43:00,
2013-03-28 04:58:00,34.8,26.0,29.96,NW,322,0.0,3.0,71,0.00,,,0.00,weatherlink.com 1.10,2013-03-28 08:58:00,
2013-03-28 05:13:00,34.9,26.0,29.96,NW,325,1.0,5.0,70,0.00,,,0.00,weatherlink.com 1.10,2013-03-28 09:13:00,
2013-03-28 05:29:00,34.8,26.0,29.96,NW,323,0.0,5.0,70,0.00,,,0.00,weatherlink.com 1.10,2013-03-28 09:29:00,
2013-03-28 05:43:00,34.2,26.0,29.96,NNW,329,0.0,4.0,71,0.00,,,0.00,weatherlink.com 1.10,2013-03-28 09:43:00,
2013-03-28 06:00:00,33.5,25.0,29.96,NNW,341,0.0,7.0,72,0.00,,,0.00,weatherlink.com 1.10,2013-03-28 10:00:00,
2013-03-28 06:15:00,33.6,26.0,29.97,NW,326,0.0,5.0,73,0.00,,,0.00,weatherlink.com 1.10,2013-03-28 10:15:00,
2013-03-28 06:30:00,33.8,26.0,29.97,NW,325,2.0,4.0,73,0.00,,,0.00,weatherlink.com 1.10,2013-03-28 10:30:00,
2013-03-28 06:45:00,34.0,26.0,29.98,NW,315,0.0,4.0,72,0.00,,,0.00,weatherlink.com 1.10,2013-03-28 10:45:00,
2013-03-28 07:00:00,34.0,26.0,29.98,NNW,342,0.0,4.0,72,0.00,,,0.00,weatherlink.com 1.10,2013-03-28 11:00:00,
2013-03-28 07:15:00,34.2,26.0,29.99,NW,326,0.0,3.0,72,0.00,,,0.00,weatherlink.com 1.10,2013-03-28 11:15:00,
2013-03-28 07:32:00,34.6,26.0,29.99,NW,309,1.0,2.0,72,0.00,,,0.00,weatherlink.com 1.10,2013-03-28 11:32:00,
2013-03-28 07:47:00,35.1,27.0,29.99,NW,313,1.0,4.0,72,0.00,,,0.00,weatherlink.com 1.10,2013-03-28 11:47:00,
2013-03-28 08:02:00,35.7,27.0,30.00,NW,317,0.0,5.0,71,0.00,,,0.00,weatherlink.com 1.10,2013-03-28 12:02:00,
2013-03-28 08:17:00,36.4,28.0,30.00,NW,313,4.0,5.0,71,0.00,,,0.00,weatherlink.com 1.10,2013-03-28 12:17:00,
2013-03-28 08:33:00,37.4,28.0,30.00,NNW,335,0.0,5.0,68,0.00,,,0.00,weatherlink.com 1.10,2013-03-28 12:33:00,
2013-03-28 08:49:00,38.6,28.0,30.00,NE,42,0.0,11.0,66,0.00,,,0.00,weatherlink.com 1.10,2013-03-28 12:49:00,
2013-03-28 09:04:00,39.8,29.0,30.00,NW,308,6.0,8.0,65,0.00,,,0.00,weatherlink.com 1.10,2013-03-28 13:04:00,
2013-03-28 09:18:00,39.8,29.0,30.01,NNW,345,4.0,11.0,65,0.00,,,0.00,weatherlink.com 1.10,2013-03-28 13:18:00,
2013-03-28 09:35:00,40.6,30.0,30.01,NNE,14,4.0,7.0,65,0.00,,,0.00,weatherlink.com 1.10,2013-03-28 13:35:00,
2013-03-28 09:50:00,41.7,30.0,30.01,NNW,348,3.0,10.0,64,0.00,,,0.00,weatherlink.com 1.10,2013-03-28 13:50:00,
2013-03-28 10:05:00,42.4,31.0,30.02,NW,326,5.0,11.0,65,0.00,,,0.00,weatherlink.com 1.10,2013-03-28 14:05:00,
2013-03-28 10:20:00,43.5,32.0,30.02,NNW,331,2.0,9.0,63,0.00,,,0.00,weatherlink.com 1.10,2013-03-28 14:20:00,
2013-03-28 10:35:00,43.4,31.0,30.02,NW,322,3.0,14.0,63,0.00,,,0.00,weatherlink.com 1.10,2013-03-28 14:35:00,
2013-03-28 10:51:00,43.2,32.0,30.03,ESE,110,0.0,11.0,65,0.00,,,0.00,weatherlink.com 1.10,2013-03-28 14:51:00,
2013-03-28 11:07:00,42.5,32.0,30.03,NW,319,1.0,10.0,66,0.00,,,0.00,weatherlink.com 1.10,2013-03-28 15:07:00,
2013-03-28 11:22:00,42.5,32.0,30.03,ENE,63,4.0,10.0,67,0.00,,,0.00,weatherlink.com 1.10,2013-03-28 15:22:00,
2013-03-28 11:37:00,43.6,33.0,30.03,NNW,329,2.0,12.0,67,0.00,,,0.00,weatherlink.com 1.10,2013-03-28 15:37:00,
2013-03-28 11:52:00,43.4,34.0,30.03,NW,319,1.0,11.0,69,0.00,,,0.00,weatherlink.com 1.10,2013-03-28 15:52:00,
2013-03-28 12:08:00,43.7,33.0,30.03,NNW,333,0.0,7.0,65,0.00,,,0.00,weatherlink.com 1.10,2013-03-28 16:08:00,
2013-03-28 12:23:00,44.2,33.0,30.03,North,355,0.0,8.0,66,0.00,,,0.00,weatherlink.com 1.10,2013-03-28 16:23:00,
2013-03-28 12:39:00,45.0,33.0,30.03,NNW,329,2.0,7.0,63,0.00,,,0.00,weatherlink.com 1.10,2013-03-28 16:39:00,
2013-03-28 12:53:00,45.1,33.0,30.03,NNW,337,0.0,7.0,62,0.00,,,0.00,weatherlink.com 1.10,2013-03-28 16:53:00,
2013-03-28 13:08:00,45.5,32.0,30.03,NW,325,1.0,10.0,60,0.00,,,0.00,weatherlink.com 1.10,2013-03-28 17:08:00,
2013-03-28 13:24:00,46.4,33.0,30.02,NW,307,2.0,7.0,60,0.00,,,0.00,weatherlink.com 1.10,2013-03-28 17:24:00,
2013-03-28 13:40:00,46.0,32.0,30.02,NNW,333,2.0,9.0,58,0.00,,,0.00,weatherlink.com 1.10,2013-03-28 17:40:00,
2013-03-28 13:55:00,46.2,32.0,30.02,West,273,0.0,11.0,58,0.00,,,0.00,weatherlink.com 1.10,2013-03-28 17:55:00,
2013-03-28 14:10:00,45.8,31.0,30.02,ENE,78,5.0,10.0,57,0.00,,,0.00,weatherlink.com 1.10,2013-03-28 18:10:00,
2013-03-28 14:25:00,45.6,31.0,30.02,North,360,6.0,9.0,56,0.00,,,0.00,weatherlink.com 1.10,2013-03-28 18:25:00,
2013-03-28 14:40:00,46.1,31.0,30.02,NNW,342,1.0,10.0,57,0.00,,,0.00,weatherlink.com 1.10,2013-03-28 18:40:00,
2013-03-28 14:57:00,47.6,31.0,30.02,North,5,2.0,8.0,53,0.00,,,0.00,weatherlink.com 1.10,2013-03-28 18:57:00,
2013-03-28 15:12:00,46.7,31.0,30.02,WNW,294,0.0,8.0,54,0.00,,,0.00,weatherlink.com 1.10,2013-03-28 19:12:00,
2013-03-28 15:27:00,47.3,30.0,30.02,WSW,256,1.0,11.0,52,0.00,,,0.00,weatherlink.com 1.10,2013-03-28 19:27:00,
2013-03-28 15:57:00,48.0,30.0,30.02,NNW,344,3.0,14.0,50,0.00,,,0.00,weatherlink.com 1.10,2013-03-28 19:57:00,
2013-03-28 16:13:00,47.4,31.0,30.02,NNW,332,2.0,9.0,54,0.00,,,0.00,weatherlink.com 1.10,2013-03-28 20:13:00,
2013-03-28 16:28:00,48.1,31.0,30.02,NW,307,4.0,9.0,52,0.00,,,0.00,weatherlink.com 1.10,2013-03-28 20:28:00,
2013-03-28 16:44:00,46.9,30.0,30.03,West,271,1.0,11.0,52,0.00,,,0.00,weatherlink.com 1.10,2013-03-28 20:44:00,
2013-03-28 16:58:00,46.1,30.0,30.03,NW,309,4.0,11.0,54,0.00,,,0.00,weatherlink.com 1.10,2013-03-28 20:58:00,
2013-03-28 17:15:00,45.6,30.0,30.03,NW,317,4.0,9.0,55,0.00,,,0.00,weatherlink.com 1.10,2013-03-28 21:15:00,
2013-03-28 17:30:00,46.0,30.0,30.03,WNW,298,0.0,7.0,55,0.00,,,0.00,weatherlink.com 1.10,2013-03-28 21:30:00,
2013-03-28 17:45:00,46.1,30.0,30.04,WNW,284,3.0,7.0,54,0.00,,,0.00,weatherlink.com 1.10,2013-03-28 21:45:00,
2013-03-28 18:00:00,45.3,30.0,30.04,NW,315,12.0,12.0,56,0.00,,,0.00,weatherlink.com 1.10,2013-03-28 22:00:00,
2013-03-28 18:15:00,44.7,30.0,30.05,WNW,289,7.0,10.0,57,0.00,,,0.00,weatherlink.com 1.10,2013-03-28 22:15:00,
2013-03-28 18:32:00,44.2,30.0,30.05,NW,321,5.0,10.0,59,0.00,,,0.00,weatherlink.com 1.10,2013-03-28 22:32:00,
2013-03-28 18:47:00,43.6,30.0,30.06,NW,322,1.0,8.0,59,0.00,,,0.00,weatherlink.com 1.10,2013-03-28 22:47:00,
2013-03-28 19:02:00,42.8,30.0,30.06,North,350,0.0,8.0,61,0.00,,,0.00,weatherlink.com 1.10,2013-03-28 23:02:00,
2013-03-28 19:17:00,42.3,30.0,30.07,NNW,346,1.0,4.0,62,0.00,,,0.00,weatherlink.com 1.10,2013-03-28 23:17:00,
2013-03-28 19:34:00,41.4,30.0,30.07,NW,313,0.0,4.0,63,0.00,,,0.00,weatherlink.com 1.10,2013-03-28 23:34:00,
2013-03-28 19:48:00,41.2,31.0,30.08,NW,318,0.0,5.0,66,0.00,,,0.00,weatherlink.com 1.10,2013-03-28 23:48:00,
2013-03-28 20:03:00,41.3,31.0,30.08,NW,306,0.0,5.0,66,0.00,,,0.00,weatherlink.com 1.10,2013-03-29 00:03:00,
2013-03-28 20:18:00,41.6,31.0,30.08,NW,326,0.0,6.0,65,0.00,,,0.00,weatherlink.com 1.10,2013-03-29 00:18:00,
2013-03-28 20:33:00,41.7,31.0,30.09,NW,326,4.0,11.0,66,0.00,,,0.00,weatherlink.com 1.10,2013-03-29 00:33:00,
2013-03-28 20:50:00,41.6,31.0,30.09,WNW,292,7.0,7.0,65,0.00,,,0.00,weatherlink.com 1.10,2013-03-29 00:50:00,
2013-03-28 21:05:00,41.4,30.0,30.09,NW,318,2.0,11.0,65,0.00,,,0.00,weatherlink.com 1.10,2013-03-29 01:05:00,
2013-03-28 21:20:00,41.2,31.0,30.10,WNW,302,2.0,4.0,66,0.00,,,0.00,weatherlink.com 1.10,2013-03-29 01:20:00,
2013-03-28 21:35:00,41.0,30.0,30.10,NNW,329,0.0,6.0,66,0.00,,,0.00,weatherlink.com 1.10,2013-03-29 01:35:00,
2013-03-28 21:50:00,41.0,30.0,30.11,NW,324,3.0,7.0,66,0.00,,,0.00,weatherlink.com 1.10,2013-03-29 01:50:00,
2013-03-28 22:05:00,41.0,30.0,30.11,NW,317,0.0,4.0,66,0.00,,,0.00,weatherlink.com 1.10,2013-03-29 02:05:00,
2013-03-28 22:22:00,40.8,31.0,30.11,NNW,339,0.0,3.0,67,0.00,,,0.00,weatherlink.com 1.10,2013-03-29 02:22:00,
2013-03-28 22:37:00,40.7,30.0,30.11,NW,320,0.0,2.0,67,0.00,,,0.00,weatherlink.com 1.10,2013-03-29 02:37:00,
2013-03-28 22:52:00,40.6,30.0,30.11,NW,320,1.0,2.0,67,0.00,,,0.00,weatherlink.com 1.10,2013-03-29 02:52:00,
2013-03-28 23:07:00,40.5,30.0,30.12,WNW,303,0.0,2.0,67,0.00,,,0.00,weatherlink.com 1.10,2013-03-29 03:07:00,
2013-03-28 23:23:00,40.4,30.0,30.11,NW,324,1.0,5.0,67,0.00,,,0.00,weatherlink.com 1.10,2013-03-29 03:23:00,
2013-03-28 23:39:00,40.5,30.0,30.12,WNW,292,0.0,4.0,66,0.00,,,0.00,weatherlink.com 1.10,2013-03-29 03:39:00,
2013-03-28 23:53:00,40.5,30.0,30.12,NW,319,2.0,3.0,66,0.00,,,0.00,weatherlink.com 1.10,2013-03-29 03:53:00,